Tounan Maru — JD3061 — position and weather

sailwx.info

Track history (hours):
 
Tides and Currents Weather Stations Pressure Air Temp Water Temp Dewpoint Dewpoint Depression Visibility Wind Speed Wind Dir Waves Ship Positions

Tounan Maru

Last reported at 2018-Jun-20 00:32 UTC. Time now 2018-Jun-25 02:25 UTC.
Position N 34°23' E 134°19'.

Length 72 m; draft 4.4 m.

Type: Tanker. MMSI: 431001357.

Date/timePositionNaut miles runAvg speedWind from/ knotsBaromVisibWave heightAir tempDewpointWater temp
2018-Jun-20 00:32N 34°23' E 134°19'112.3
2018-Jun-20 00:28N 34°23' E 134°20'612.0
2018-Jun-20 00:00N 34°20' E 134°26'712.1
2018-Jun-19 23:28N 34°18' E 134°33'611.5
2018-Jun-19 22:59N 34°14' E 134°39'710.4
2018-Jun-19 22:16N 34°08' E 134°44'311.4
2018-Jun-19 22:00N 34°06' E 134°47'711.4
2018-Jun-19 21:21N 34°00' E 134°52'412.4
2018-Jun-19 20:59N 33°57' E 134°55'612.3
2018-Jun-19 20:30N 33°52' E 134°59'  
Track history (hours):
 
Tides and Currents Weather Stations Pressure Air Temp Water Temp Dewpoint Dewpoint Depression Visibility Wind Speed Wind Dir Waves Ship Positions

Tounan Maru

Last reported at 2018-Jun-20 00:32 UTC. Time now 2018-Jun-25 02:25 UTC.
Position N 34°23' E 134°19'.

Length 72 m; draft 4.4 m.

Type: Tanker. MMSI: 431001357.

Date/timePositionNaut miles runAvg speedWind from/ knotsBaromVisibWave heightAir tempDewpointWater temp
2018-Jun-20 00:32N 34°23' E 134°19'112.3
2018-Jun-20 00:28N 34°23' E 134°20'612.0
2018-Jun-20 00:00N 34°20' E 134°26'712.1
2018-Jun-19 23:28N 34°18' E 134°33'611.5
2018-Jun-19 22:59N 34°14' E 134°39'710.4
2018-Jun-19 22:16N 34°08' E 134°44'311.4
2018-Jun-19 22:00N 34°06' E 134°47'711.4
2018-Jun-19 21:21N 34°00' E 134°52'412.4
2018-Jun-19 20:59N 33°57' E 134°55'612.3
2018-Jun-19 20:30N 33°52' E 134°59'  

Dump ship's entire track history